Time;durP1;ratioP1;P1;durP2;ratioP2;P2;SDS_P1;SDS_P2;PMS_P1;PMS_P2;Temp;Humidity;BMP_temperature;BMP_pressure;BME280_temperature;BME280_humidity;BME280_pressure;Samples;Min_cycle;Max_cycle;Signal;HPM_P1;HPM_P2
2024/01/24 00:00:23;;;;;;;9.43;2.60;;;;;;;12.52;100.00;101289.44;5085480;28;20028;-72
2024/01/24 00:02:49;;;;;;;13.55;2.90;;;;;;;12.54;100.00;101270.88;5083960;28;20402;-71
2024/01/24 00:05:15;;;;;;;11.82;2.88;;;;;;;12.57;100.00;101270.88;5084244;28;20064;-72
2024/01/24 00:07:41;;;;;;;12.95;2.90;;;;;;;12.61;100.00;101229.31;5085508;28;20494;-71
2024/01/24 00:10:07;;;;;;;8.35;2.80;;;;;;;12.59;100.00;101253.19;5083595;28;20040;-80
2024/01/24 00:12:32;;;;;;;12.82;2.92;;;;;;;12.61;100.00;101280.63;5086179;28;20044;-80
2024/01/24 00:14:57;;;;;;;10.48;2.88;;;;;;;12.62;100.00;101284.16;5082066;28;20056;-80
2024/01/24 00:17:23;;;;;;;10.27;2.50;;;;;;;12.63;100.00;101286.78;5082805;28;20032;-79
2024/01/24 00:19:48;;;;;;;9.25;2.70;;;;;;;12.59;100.00;101292.09;5084691;28;20412;-80
2024/01/24 00:22:14;;;;;;;9.65;2.63;;;;;;;12.65;100.00;101302.72;5085177;28;20032;-79
2024/01/24 00:24:39;;;;;;;11.32;2.75;;;;;;;12.63;100.00;101275.31;5083419;28;20021;-75
2024/01/24 00:27:05;;;;;;;10.02;2.70;;;;;;;12.62;100.00;101282.38;5085724;28;20055;-79
2024/01/24 00:29:30;;;;;;;11.50;2.63;;;;;;;12.69;100.00;101259.41;5082192;28;20037;-78
2024/01/24 00:31:56;;;;;;;10.70;2.53;;;;;;;12.68;100.00;101262.94;5085488;28;20433;-72
2024/01/24 00:34:22;;;;;;;9.15;2.50;;;;;;;12.70;100.00;101282.41;5083597;28;20067;-71
2024/01/24 00:36:49;;;;;;;10.75;2.60;;;;;;;12.75;100.00;101269.16;5082402;28;20030;-71
2024/01/24 00:39:15;;;;;;;8.45;2.40;;;;;;;12.77;100.00;101262.97;5083389;28;20070;-71
2024/01/24 00:41:44;;;;;;;7.78;2.40;;;;;;;12.71;100.00;101249.69;5084997;28;20425;-71
2024/01/24 00:44:09;;;;;;;6.93;2.33;;;;;;;12.72;100.00;101265.59;5082820;28;20056;-71
2024/01/24 00:46:34;;;;;;;7.53;2.30;;;;;;;12.72;100.00;101259.41;5085962;28;20109;-72
2024/01/24 00:49:02;;;;;;;8.40;2.42;;;;;;;12.72;100.00;101257.63;5081954;28;20082;-71
2024/01/24 00:51:28;;;;;;;6.85;2.40;;;;;;;12.76;100.00;101265.63;5085664;28;20327;-80
2024/01/24 00:53:53;;;;;;;8.70;2.60;;;;;;;12.61;100.00;101237.28;5083013;28;20059;-79
2024/01/24 00:56:20;;;;;;;5.45;2.40;;;;;;;12.38;100.00;101262.84;5083490;28;20078;-80
2024/01/24 00:58:45;;;;;;;9.48;2.67;;;;;;;12.32;100.00;101257.53;5083343;28;20492;-79
2024/01/24 01:01:11;;;;;;;8.90;2.58;;;;;;;12.32;100.00;101230.13;5082467;28;20028;-80
2024/01/24 01:03:37;;;;;;;6.93;2.50;;;;;;;12.05;100.00;101262.72;5084465;28;20024;-79
2024/01/24 01:06:04;;;;;;;8.68;2.88;;;;;;;11.83;100.00;101284.63;5080173;28;20031;-79
2024/01/24 01:08:29;;;;;;;7.22;2.60;;;;;;;11.70;100.00;101256.31;5077335;28;20479;-78
2024/01/24 01:10:55;;;;;;;10.68;2.80;;;;;;;11.62;100.00;101274.81;5083931;28;20056;-79
2024/01/24 01:13:20;;;;;;;9.48;3.00;;;;;;;11.47;100.00;101278.19;5082531;28;20394;-79
2024/01/24 01:15:46;;;;;;;6.82;2.83;;;;;;;11.48;100.00;101240.28;5083042;28;20032;-78
2024/01/24 01:18:11;;;;;;;10.70;3.20;;;;;;;11.43;100.00;101267.59;5083693;28;20032;-72
2024/01/24 01:20:36;;;;;;;8.25;2.90;;;;;;;11.46;100.00;101294.97;5081483;28;20031;-71
2024/01/24 01:23:03;;;;;;;9.93;3.08;;;;;;;11.42;100.00;101244.66;5084521;28;20024;-71
2024/01/24 01:25:28;;;;;;;8.93;3.15;;;;;;;11.40;100.00;101268.47;5081206;28;20040;-72
2024/01/24 01:27:53;;;;;;;10.70;2.97;;;;;;;11.47;100.00;101258.78;5083708;28;20020;-71
2024/01/24 01:30:19;;;;;;;9.60;2.90;;;;;;;11.41;100.00;101296.69;5080272;28;20115;-72
2024/01/24 01:32:44;;;;;;;9.10;3.00;;;;;;;11.42;100.00;101244.66;5083002;28;20035;-79
2024/01/24 01:35:10;;;;;;;7.47;2.95;;;;;;;11.43;100.00;101233.16;5080508;28;20112;-79
2024/01/24 01:37:38;;;;;;;11.05;2.80;;;;;;;11.48;100.00;101272.03;5084340;28;20028;-79
2024/01/24 01:40:06;;;;;;;6.93;2.80;;;;;;;11.43;100.00;101263.19;5081220;28;20040;-78
2024/01/24 01:42:31;;;;;;;7.70;2.80;;;;;;;11.40;100.00;101268.47;5077144;28;20028;-72
2024/01/24 01:44:56;;;;;;;8.68;3.10;;;;;;;11.40;100.00;101270.22;5083780;28;20024;-72
2024/01/24 01:47:23;;;;;;;8.88;3.00;;;;;;;11.42;100.00;101273.78;5081801;28;20035;-75
2024/01/24 01:49:48;;;;;;;10.25;2.95;;;;;;;11.41;100.00;101278.16;5083622;28;20032;-74
2024/01/24 01:52:15;;;;;;;6.40;2.78;;;;;;;11.37;100.00;101262.25;5086056;28;20039;-78
2024/01/24 01:54:42;;;;;;;8.80;2.80;;;;;;;11.32;100.00;101281.63;5084534;28;20112;-77
2024/01/24 01:57:11;;;;;;;10.02;2.85;;;;;;;11.26;100.00;101293.94;5088131;28;20028;-75
2024/01/24 01:59:38;;;;;;;10.43;3.00;;;;;;;11.21;100.00;101277.13;5084956;28;20054;-72
2024/01/24 02:02:04;;;;;;;7.22;2.90;;;;;;;11.18;100.00;101256.78;5088351;28;20077;-72
2024/01/24 02:04:30;;;;;;;8.32;2.90;;;;;;;11.13;100.00;101254.13;5085039;28;20029;-72
2024/01/24 02:06:56;;;;;;;8.18;3.00;;;;;;;11.11;100.00;101261.16;5087517;28;20106;-72
2024/01/24 02:09:22;;;;;;;7.18;2.90;;;;;;;11.11;100.00;101282.34;5084634;28;20107;-73
2024/01/24 02:11:47;;;;;;;6.93;3.08;;;;;;;10.99;100.00;101271.63;5085153;28;20076;-73
2024/01/24 02:14:13;;;;;;;7.68;3.08;;;;;;;10.96;100.00;101266.31;5087045;28;20062;-73
2024/01/24 02:16:38;;;;;;;8.80;3.40;;;;;;;10.93;100.00;101276.88;5084904;28;20468;-72
2024/01/24 02:19:05;;;;;;;7.97;2.97;;;;;;;10.93;100.00;101274.22;5088182;28;20032;-74
2024/01/24 02:21:30;;;;;;;7.05;3.17;;;;;;;10.92;100.00;101268.06;5084406;28;20028;-75
2024/01/24 02:23:57;;;;;;;8.50;3.10;;;;;;;10.90;100.00;101272.41;5087407;28;20452;-73
2024/01/24 02:26:23;;;;;;;9.15;3.20;;;;;;;10.88;100.00;101260.94;5085616;28;20120;-72
2024/01/24 02:28:48;;;;;;;5.10;2.95;;;;;;;10.89;100.00;101314.72;5085981;28;20051;-73
2024/01/24 02:31:14;;;;;;;6.70;2.80;;;;;;;10.89;100.00;101261.81;5087060;28;20024;-76
2024/01/24 02:33:39;;;;;;;8.38;2.90;;;;;;;10.90;100.00;101267.13;5084832;28;20036;-77
2024/01/24 02:36:04;;;;;;;7.65;3.00;;;;;;;10.91;100.00;101287.44;5087783;28;20490;-77
2024/01/24 02:38:30;;;;;;;6.40;2.90;;;;;;;10.89;100.00;101269.75;5084667;28;20494;-77
2024/01/24 02:40:55;;;;;;;6.57;3.00;;;;;;;10.93;100.00;101263.63;5086817;28;20024;-74
2024/01/24 02:43:21;;;;;;;5.88;2.70;;;;;;;10.88;100.00;101284.75;5085347;28;20024;-74
2024/01/24 02:45:46;;;;;;;7.18;3.03;;;;;;;10.90;100.00;101271.56;5085503;28;20059;-74
2024/01/24 02:48:11;;;;;;;5.18;2.80;;;;;;;10.91;100.00;101287.44;5086553;28;20394;-74
2024/01/24 02:50:37;;;;;;;6.88;2.83;;;;;;;10.91;100.00;101258.34;5084065;28;20502;-73
2024/01/24 02:53:02;;;;;;;6.10;2.80;;;;;;;10.92;100.00;101290.94;5087634;28;20036;-73
2024/01/24 02:55:29;;;;;;;6.43;3.00;;;;;;;10.92;100.00;101285.66;5066199;28;20036;-76
2024/01/24 02:57:54;;;;;;;6.43;3.03;;;;;;;10.91;100.00;101268.03;5086329;28;20052;-73
2024/01/24 03:00:20;;;;;;;6.45;3.20;;;;;;;10.96;100.00;101255.72;5085388;28;20479;-73
2024/01/24 03:02:46;;;;;;;7.57;3.42;;;;;;;10.93;100.00;101271.56;5084862;28;20389;-72
2024/01/24 03:05:11;;;;;;;9.13;3.35;;;;;;;10.95;100.00;101257.50;5086509;28;20382;-73
2024/01/24 03:07:38;;;;;;;9.55;3.70;;;;;;;10.95;100.00;101283.03;5084028;28;20471;-74
2024/01/24 03:10:04;;;;;;;10.32;4.13;;;;;;;10.94;100.00;101265.41;5069094;28;20127;-73
2024/01/24 03:12:30;;;;;;;10.60;4.10;;;;;;;10.97;100.00;101261.03;5083526;28;20049;-76
2024/01/24 03:14:55;;;;;;;11.52;4.35;;;;;;;10.98;100.00;101280.44;5086602;28;20033;-76
2024/01/24 03:17:21;;;;;;;12.10;3.95;;;;;;;11.02;100.00;101242.53;5084770;28;20088;-72
2024/01/24 03:19:46;;;;;;;10.55;3.63;;;;;;;11.04;100.00;101290.19;5085135;28;20108;-72
2024/01/24 03:22:11;;;;;;;7.03;3.55;;;;;;;10.95;100.00;101306.84;5085999;28;20372;-73
2024/01/24 03:24:37;;;;;;;10.40;3.40;;;;;;;10.96;100.00;101261.03;5082155;28;20025;-73
2024/01/24 03:27:02;;;;;;;7.68;2.90;;;;;;;10.98;100.00;101294.56;5086973;28;20145;-72
2024/01/24 03:29:28;;;;;;;8.90;2.88;;;;;;;10.97;100.00;101298.06;5082236;28;20033;-78
2024/01/24 03:31:53;;;;;;;8.43;2.70;;;;;;;10.97;100.00;101321.00;5084136;28;20115;-73
2024/01/24 03:34:18;;;;;;;9.57;3.20;;;;;;;10.91;100.00;101318.28;5085086;28;20032;-74
2024/01/24 03:36:44;;;;;;;7.53;2.80;;;;;;;10.92;100.00;101350.06;5084122;28;20108;-81
2024/01/24 03:39:09;;;;;;;11.40;2.88;;;;;;;10.96;100.00;101319.22;5085966;28;20032;-85
2024/01/24 03:41:38;;;;;;;9.40;3.05;;;;;;;10.98;100.00;101354.53;5083248;28;20032;-76
2024/01/24 03:44:04;;;;;;;11.40;2.90;;;;;;;10.99;100.00;101343.97;5079344;28;20028;-84
2024/01/24 03:46:29;;;;;;;12.75;2.92;;;;;;;10.99;100.00;101336.03;5086143;28;20020;-80
2024/01/24 03:48:55;;;;;;;11.35;3.10;;;;;;;11.00;100.00;101336.91;5083758;28;20032;-83
2024/01/24 03:51:20;;;;;;;13.95;3.15;;;;;;;10.92;100.00;101347.41;5084595;28;20037;-82
2024/01/24 03:53:46;;;;;;;11.90;2.90;;;;;;;11.02;100.00;101313.09;5084977;28;20031;-82
2024/01/24 03:56:11;;;;;;;13.93;2.90;;;;;;;10.91;100.00;101323.59;5083401;28;20103;-85
2024/01/24 03:58:37;;;;;;;16.05;2.80;;;;;;;10.97;100.00;101336.88;5086388;28;20394;-83
2024/01/24 04:01:03;;;;;;;14.10;3.00;;;;;;;11.02;100.00;101315.75;5081787;28;20375;-85
2024/01/24 04:03:28;;;;;;;16.75;3.15;;;;;;;10.99;100.00;101333.38;5085526;28;20085;-73
2024/01/24 04:05:53;;;;;;;15.70;2.90;;;;;;;10.96;100.00;101298.06;5083574;28;20463;-84
2024/01/24 04:08:19;;;;;;;16.00;3.25;;;;;;;11.02;100.00;101281.34;5082928;28;20056;-82
2024/01/24 04:10:44;;;;;;;17.55;3.17;;;;;;;11.02;100.00;101303.41;5084523;28;20038;-72
2024/01/24 04:13:09;;;;;;;18.38;3.10;;;;;;;10.98;100.00;101298.97;5082418;28;20029;-72
2024/01/24 04:15:35;;;;;;;20.55;3.42;;;;;;;10.94;100.00;101246.91;5086006;28;20031;-74
2024/01/24 04:18:00;;;;;;;17.95;3.30;;;;;;;10.95;100.00;101238.06;5082325;28;20124;-79
2024/01/24 04:20:26;;;;;;;20.00;3.58;;;;;;;10.88;100.00;101300.63;5083535;28;20063;-79
2024/01/24 04:22:52;;;;;;;19.88;3.15;;;;;;;10.88;100.00;101307.66;5083546;28;20078;-78
2024/01/24 04:25:17;;;;;;;18.73;3.10;;;;;;;10.88;100.00;101283.84;5083624;28;20442;-78
2024/01/24 04:27:43;;;;;;;21.33;4.00;;;;;;;11.02;100.00;101316.63;5083346;28;20036;-79
2024/01/24 04:30:08;;;;;;;20.02;3.40;;;;;;;11.29;100.00;101336.31;5081169;28;20032;-79
2024/01/24 04:32:34;;;;;;;19.70;3.80;;;;;;;11.46;100.00;101345.28;5085271;28;20470;-79
2024/01/24 04:34:59;;;;;;;19.77;3.70;;;;;;;11.47;100.00;101354.97;5082431;28;20020;-78
2024/01/24 04:37:25;;;;;;;21.20;3.60;;;;;;;11.48;100.00;101332.94;5084540;28;20035;-79
2024/01/24 04:39:50;;;;;;;22.48;3.97;;;;;;;11.54;100.00;101361.22;5083453;28;20489;-79
2024/01/24 04:42:16;;;;;;;21.88;3.95;;;;;;;11.55;100.00;101340.91;5083072;28;20020;-72
2024/01/24 04:44:41;;;;;;;20.75;3.88;;;;;;;11.44;100.00;101354.06;5084579;28;20027;-72
2024/01/24 04:47:06;;;;;;;25.08;4.70;;;;;;;11.41;100.00;101344.34;5081570;28;20028;-73
2024/01/24 04:49:32;;;;;;;23.60;4.28;;;;;;;11.34;100.00;101347.81;5085118;28;20068;-71
2024/01/24 04:51:57;;;;;;;23.90;4.60;;;;;;;11.26;100.00;101350.38;5082261;28;20033;-72
2024/01/24 04:54:22;;;;;;;22.20;4.43;;;;;;;11.30;100.00;101356.56;5082448;28;20119;-72
2024/01/24 04:56:48;;;;;;;25.00;5.10;;;;;;;11.33;100.00;101354.00;5083567;28;20024;-85
2024/01/24 04:59:15;;;;;;;23.27;4.55;;;;;;;11.39;100.00;101322.28;5082294;28;20574;-80
2024/01/24 05:01:40;;;;;;;22.20;4.63;;;;;;;11.37;100.00;101324.00;5084427;28;20026;-81
2024/01/24 05:04:06;;;;;;;24.40;4.85;;;;;;;11.34;100.00;101339.84;5081871;28;20099;-84
2024/01/24 05:06:31;;;;;;;22.30;4.68;;;;;;;11.30;100.00;101322.16;5084675;28;20462;-81
2024/01/24 05:08:56;;;;;;;23.80;5.03;;;;;;;11.33;100.00;101314.28;5081974;28;20036;-84
2024/01/24 05:11:22;;;;;;;25.70;5.30;;;;;;;11.33;100.00;101332.81;5083285;28;20053;-84
2024/01/24 05:13:48;;;;;;;26.73;5.18;;;;;;;11.38;100.00;101381.38;5083295;28;20032;-85
2024/01/24 05:16:13;;;;;;;25.70;5.20;;;;;;;11.34;100.00;101353.09;5082066;28;20398;-79
2024/01/24 05:18:39;;;;;;;24.77;5.15;;;;;;;11.34;100.00;101371.63;5084799;28;20429;-82
2024/01/24 05:21:05;;;;;;;26.40;5.13;;;;;;;11.32;100.00;101407.78;5081383;28;20029;-84
2024/01/24 05:23:31;;;;;;;26.75;5.45;;;;;;;11.42;100.00;101407.00;5084585;28;20387;-85
2024/01/24 05:25:57;;;;;;;24.15;4.95;;;;;;;11.44;100.00;101359.38;5081774;28;20081;-75
2024/01/24 05:28:22;;;;;;;26.85;5.22;;;;;;;11.37;100.00;101402.53;5083246;28;20028;-73
2024/01/24 05:30:47;;;;;;;25.00;5.43;;;;;;;11.35;100.00;101399.88;5083164;28;20028;-72
2024/01/24 05:33:12;;;;;;;25.98;5.97;;;;;;;11.29;100.00;101403.34;5080443;28;20048;-71
2024/01/24 05:35:38;;;;;;;24.52;5.32;;;;;;;11.28;100.00;101406.84;5084346;28;20032;-72
2024/01/24 05:38:04;;;;;;;24.20;5.47;;;;;;;11.30;100.00;101398.94;5081115;28;20060;-73
2024/01/24 05:40:29;;;;;;;24.95;5.18;;;;;;;11.31;100.00;101403.34;5083999;28;20032;-77
2024/01/24 05:42:55;;;;;;;27.13;6.15;;;;;;;11.29;100.00;101397.19;5081889;28;20050;-78
2024/01/24 05:45:20;;;;;;;26.55;5.28;;;;;;;11.29;100.00;101424.50;5081535;28;20082;-77
2024/01/24 05:47:46;;;;;;;26.30;5.95;;;;;;;11.25;100.00;101414.75;5083150;28;20033;-79
2024/01/24 05:50:12;;;;;;;23.77;5.35;;;;;;;11.23;100.00;101431.53;5081609;28;20517;-77
2024/01/24 05:52:42;;;;;;;24.23;5.47;;;;;;;11.16;100.00;101430.56;5084384;28;20461;-79
2024/01/24 05:55:09;;;;;;;25.80;5.15;;;;;;;11.21;100.00;101409.44;5080812;28;20027;-79
2024/01/24 05:57:35;;;;;;;26.73;5.80;;;;;;;11.16;100.00;101436.72;5076920;28;20039;-79
2024/01/24 06:00:00;;;;;;;27.02;5.65;;;;;;;11.18;100.00;101431.44;5084126;28;20106;-77
2024/01/24 06:02:26;;;;;;;27.75;6.43;;;;;;;11.23;100.00;101435.03;5081500;28;20356;-79
2024/01/24 06:04:51;;;;;;;26.88;5.40;;;;;;;11.16;100.00;101418.19;5082498;28;20448;-79
2024/01/24 06:07:17;;;;;;;25.75;6.25;;;;;;;11.18;100.00;101396.16;5083312;28;20096;-72
2024/01/24 06:09:42;;;;;;;26.95;5.53;;;;;;;11.22;100.00;101437.69;5081000;28;20045;-79
2024/01/24 06:12:08;;;;;;;28.42;6.38;;;;;;;11.16;100.00;101434.06;5083095;28;20048;-76
2024/01/24 06:14:33;;;;;;;28.48;5.93;;;;;;;11.15;100.00;101468.47;5076546;28;20155;-71
2024/01/24 06:16:59;;;;;;;28.65;6.50;;;;;;;11.13;100.00;101460.50;5083410;28;20379;-72
2024/01/24 06:19:24;;;;;;;28.55;6.35;;;;;;;11.11;100.00;101485.16;5081815;28;20024;-79
2024/01/24 06:21:49;;;;;;;30.23;7.07;;;;;;;11.11;100.00;101515.19;5082106;28;20035;-79
2024/01/24 06:24:15;;;;;;;29.33;5.95;;;;;;;11.10;100.00;101451.66;5083112;28;20016;-79
2024/01/24 06:26:40;;;;;;;28.88;6.63;;;;;;;11.09;100.00;101479.84;5080965;28;20360;-74
2024/01/24 06:29:07;;;;;;;27.65;6.32;;;;;;;11.01;100.00;101492.13;5082669;28;20123;-71
2024/01/24 06:31:32;;;;;;;27.05;6.18;;;;;;;10.95;100.00;101513.19;5079204;28;20086;-72
2024/01/24 06:33:58;;;;;;;30.35;7.55;;;;;;;10.93;100.00;101525.50;5083194;28;20040;-72
2024/01/24 06:36:23;;;;;;;29.13;6.85;;;;;;;10.92;100.00;101519.34;5082119;28;20020;-73
2024/01/24 06:38:49;;;;;;;26.50;5.93;;;;;;;10.97;100.00;101519.41;5084389;28;20483;-72
2024/01/24 06:41:14;;;;;;;28.88;6.53;;;;;;;10.90;100.00;101547.50;5086819;28;20036;-72
2024/01/24 06:43:42;;;;;;;26.63;5.95;;;;;;;10.92;100.00;101542.25;5084151;28;20064;-71
2024/01/24 06:46:08;;;;;;;29.65;5.95;;;;;;;10.91;100.00;101544.00;5087521;28;20035;-72
2024/01/24 06:48:34;;;;;;;30.25;6.57;;;;;;;10.83;100.00;101577.38;5080001;28;20573;-72
2024/01/24 06:50:59;;;;;;;31.05;6.07;;;;;;;10.94;100.00;101554.63;5086813;28;20043;-71
2024/01/24 06:53:25;;;;;;;29.02;6.78;;;;;;;10.80;100.00;101604.69;5084954;28;20032;-72
2024/01/24 06:55:50;;;;;;;29.42;6.15;;;;;;;10.70;100.00;101623.91;5085961;28;20109;-71
2024/01/24 06:58:15;;;;;;;30.05;6.85;;;;;;;10.67;100.00;101629.13;5086267;28;20031;-71
2024/01/24 07:00:41;;;;;;;24.83;5.07;;;;;;;10.68;100.00;101635.34;5084611;28;20139;-82
2024/01/24 07:03:06;;;;;;;32.95;7.00;;;;;;;10.58;100.00;101618.44;5086536;28;20555;-78
2024/01/24 07:05:32;;;;;;;31.58;6.95;;;;;;;10.46;100.00;101580.34;5084012;28;20032;-73
2024/01/24 07:07:57;;;;;;;31.15;6.95;;;;;;;10.39;100.00;101583.75;5086266;28;20369;-82
2024/01/24 07:10:23;;;;;;;34.22;7.25;;;;;;;10.33;100.00;101588.91;5082976;28;20059;-76
2024/01/24 07:12:49;;;;;;;32.83;7.53;;;;;;;10.26;100.00;101618.72;5085280;28;20054;-82
2024/01/24 07:15:16;;;;;;;26.83;5.82;;;;;;;10.31;100.00;101577.44;5084526;28;20411;-74
2024/01/24 07:17:41;;;;;;;30.15;6.93;;;;;;;10.38;100.00;101604.88;5086661;28;20099;-78
2024/01/24 07:20:07;;;;;;;28.33;6.80;;;;;;;10.32;100.00;101600.31;5083572;28;20116;-79
2024/01/24 07:22:32;;;;;;;33.97;7.00;;;;;;;10.25;100.00;101625.78;5086867;28;20050;-78
2024/01/24 07:24:58;;;;;;;30.42;6.97;;;;;;;10.19;100.00;101644.13;5084057;28;20028;-74
2024/01/24 07:27:23;;;;;;;30.98;6.60;;;;;;;10.21;100.00;101639.78;5085185;28;20029;-71
2024/01/24 07:29:49;;;;;;;31.17;7.00;;;;;;;10.15;100.00;101662.53;5085381;28;20071;-72
2024/01/24 07:32:15;;;;;;;31.75;7.22;;;;;;;10.11;100.00;101641.34;5082588;28;20025;-72
2024/01/24 07:34:40;;;;;;;32.35;7.10;;;;;;;10.11;100.00;101644.00;5084954;28;20090;-71
2024/01/24 07:37:07;;;;;;;32.40;7.60;;;;;;;9.97;100.00;101656.03;5083129;28;20535;-73
2024/01/24 07:39:33;;;;;;;29.25;6.93;;;;;;;9.98;100.00;101671.03;5086302;28;20025;-72
2024/01/24 07:41:58;;;;;;;30.85;7.40;;;;;;;10.04;100.00;101659.72;5083584;28;20096;-79
2024/01/24 07:44:24;;;;;;;31.70;7.10;;;;;;;10.02;100.00;101654.41;5085081;28;20034;-81
2024/01/24 07:46:49;;;;;;;31.88;7.20;;;;;;;10.06;100.00;101660.63;5084735;28;20398;-72
2024/01/24 07:49:14;;;;;;;31.70;6.93;;;;;;;10.03;100.00;101673.78;5082666;28;20028;-73
2024/01/24 07:51:46;;;;;;;30.63;6.85;;;;;;;10.03;100.00;101665.84;5086276;28;20462;-74
2024/01/24 07:54:12;;;;;;;32.88;7.43;;;;;;;9.95;100.00;101686.84;5081899;28;20035;-72
2024/01/24 07:56:40;;;;;;;32.00;7.18;;;;;;;9.91;100.00;101674.41;5086470;28;20360;-72
2024/01/24 07:59:06;;;;;;;29.08;6.95;;;;;;;9.93;100.00;101749.28;5079136;28;20036;-73
2024/01/24 08:01:32;;;;;;;29.90;7.28;;;;;;;9.89;100.00;101702.56;5074360;28;20039;-79
2024/01/24 08:04:00;;;;;;;30.25;6.70;;;;;;;9.89;100.00;101715.75;5082729;28;20024;-74
2024/01/24 08:06:26;;;;;;;32.92;7.57;;;;;;;9.84;100.00;101696.28;5084942;28;20044;-75
2024/01/24 08:08:51;;;;;;;31.85;7.00;;;;;;;9.74;100.00;101693.44;5084146;28;20024;-79
2024/01/24 08:11:17;;;;;;;31.30;7.65;;;;;;;9.75;100.00;101686.41;5083186;28;20091;-79
2024/01/24 08:13:43;;;;;;;30.33;7.13;;;;;;;9.81;100.00;101725.25;5085261;28;20044;-78
2024/01/24 08:16:09;;;;;;;31.15;6.57;;;;;;;9.82;100.00;101693.59;5082588;28;20407;-72
2024/01/24 08:18:36;;;;;;;31.10;6.63;;;;;;;9.84;100.00;101720.91;5079231;28;20044;-72
2024/01/24 08:21:01;;;;;;;31.10;6.80;;;;;;;9.88;100.00;101745.66;5067673;28;20484;-72
2024/01/24 08:23:26;;;;;;;34.03;8.98;;;;;;;9.95;100.00;101742.31;5082340;28;20039;-72
2024/01/24 08:25:52;;;;;;;31.25;7.25;;;;;;;9.93;100.00;101730.78;5084761;28;20056;-77
2024/01/24 08:28:17;;;;;;;32.53;7.82;;;;;;;9.93;100.00;101755.47;5084868;28;20382;-73
2024/01/24 08:30:43;;;;;;;33.53;7.95;;;;;;;9.95;100.00;101747.59;5081058;28;20418;-79
2024/01/24 08:33:08;;;;;;;32.53;7.75;;;;;;;9.92;100.00;101726.38;5081350;28;20051;-80
2024/01/24 08:35:35;;;;;;;32.40;7.70;;;;;;;9.95;100.00;101742.31;5085771;28;20027;-79
2024/01/24 08:38:01;;;;;;;31.48;7.13;;;;;;;9.96;100.00;101746.72;5082895;28;20364;-80
2024/01/24 08:40:27;;;;;;;32.25;7.53;;;;;;;10.01;100.00;101771.47;5085013;28;20021;-80
2024/01/24 08:42:52;;;;;;;28.75;6.93;;;;;;;10.00;100.00;101780.25;5084464;28;20032;-80
2024/01/24 08:45:17;;;;;;;30.85;6.95;;;;;;;10.00;100.00;101788.19;5083600;28;20036;-80
2024/01/24 08:47:43;;;;;;;31.10;6.88;;;;;;;10.04;100.00;101758.31;5084855;28;20032;-79
2024/01/24 08:50:09;;;;;;;31.23;7.35;;;;;;;10.05;100.00;101794.47;5080532;28;20506;-72
2024/01/24 08:52:35;;;;;;;33.00;7.40;;;;;;;10.08;100.00;101797.16;5077806;28;20433;-77
2024/01/24 08:55:01;;;;;;;29.80;7.15;;;;;;;10.09;100.00;101771.63;5084635;28;20024;-72
2024/01/24 08:57:26;;;;;;;33.33;7.15;;;;;;;10.10;100.00;101774.31;5082497;28;20020;-76
2024/01/24 08:59:52;;;;;;;28.70;6.68;;;;;;;10.08;100.00;101776.03;5083587;28;20029;-76
2024/01/24 09:02:18;;;;;;;31.70;7.28;;;;;;;10.14;100.00;101790.25;5084499;28;20505;-77
2024/01/24 09:04:45;;;;;;;27.85;5.50;;;;;;;10.21;100.00;101781.59;5082464;28;20040;-73
2024/01/24 09:07:10;;;;;;;32.38;7.43;;;;;;;10.18;100.00;101818.50;5080960;28;20085;-81
2024/01/24 09:09:36;;;;;;;30.95;6.60;;;;;;;10.12;100.00;101836.00;5081358;28;20037;-83
2024/01/24 09:12:02;;;;;;;30.05;6.35;;;;;;;10.11;100.00;101826.28;5078926;28;20049;-83
2024/01/24 09:14:28;;;;;;;31.88;7.50;;;;;;;10.08;100.00;101830.63;5066402;28;20032;-82
2024/01/24 09:16:53;;;;;;;29.98;7.18;;;;;;;10.09;100.00;101833.31;5080355;28;20032;-79
2024/01/24 09:19:18;;;;;;;31.17;6.85;;;;;;;10.12;100.00;101809.59;5085082;28;20035;-83
2024/01/24 09:21:44;;;;;;;34.55;7.82;;;;;;;10.19;100.00;101825.56;5082091;28;20028;-83
2024/01/24 09:24:09;;;;;;;29.38;6.38;;;;;;;10.30;100.00;101834.63;5083771;28;20486;-83
2024/01/24 09:26:36;;;;;;;31.27;7.28;;;;;;;10.35;100.00;101845.31;5081968;28;20485;-83
2024/01/24 09:29:02;;;;;;;29.45;6.57;;;;;;;10.35;100.00;101850.59;5082365;28;20032;-75
2024/01/24 09:31:29;;;;;;;30.60;7.18;;;;;;;10.36;100.00;101844.47;5082515;28;20024;-75
2024/01/24 09:33:55;;;;;;;32.35;6.53;;;;;;;10.50;100.00;101894.97;5081199;28;20020;-72
2024/01/24 09:36:23;;;;;;;31.75;6.97;;;;;;;10.52;100.00;101869.47;5084873;28;20082;-73
2024/01/24 09:38:48;;;;;;;32.72;8.18;;;;;;;10.53;100.00;101892.38;5076886;28;20027;-77
2024/01/24 09:41:18;;;;;;;29.92;6.93;;;;;;;10.60;100.00;101903.16;5082786;28;20028;-73
2024/01/24 09:43:45;;;;;;;29.10;7.10;;;;;;;10.59;100.00;101911.06;5081666;28;20032;-72
2024/01/24 09:46:18;;;;;;;32.08;7.38;;;;;;;10.52;100.00;101898.56;5083153;28;20123;-71
2024/01/24 09:48:45;;;;;;;31.00;6.72;;;;;;;10.62;100.00;101914.63;5081368;28;20024;-74
2024/01/24 09:51:10;;;;;;;31.40;7.70;;;;;;;10.59;100.00;101900.47;5083406;28;20060;-71
2024/01/24 09:53:38;;;;;;;32.60;6.90;;;;;;;10.65;100.00;101890.03;5082636;28;20103;-72
2024/01/24 09:56:04;;;;;;;34.42;7.60;;;;;;;10.65;100.00;101892.66;5082488;28;20036;-72
2024/01/24 09:58:30;;;;;;;33.50;8.18;;;;;;;10.63;100.00;101902.31;5083659;28;20028;-75
2024/01/24 10:00:56;;;;;;;31.33;7.78;;;;;;;10.61;100.00;101917.25;5081086;28;20098;-77
2024/01/24 10:03:23;;;;;;;33.10;7.32;;;;;;;10.67;100.00;101914.72;5084553;28;20028;-77
2024/01/24 10:05:50;;;;;;;30.25;7.55;;;;;;;10.67;100.00;101932.34;5077233;28;20372;-75
2024/01/24 10:08:17;;;;;;;32.22;7.18;;;;;;;10.78;100.00;101937.00;5082372;28;20123;-80
2024/01/24 10:10:43;;;;;;;29.23;7.80;;;;;;;10.94;100.00;101929.41;5081688;28;20115;-75
2024/01/24 10:13:08;;;;;;;27.90;5.53;;;;;;;11.11;100.00;101930.63;5086941;28;20127;-75
2024/01/24 10:15:35;;;;;;;29.80;7.57;;;;;;;11.00;100.00;101945.38;5086689;28;20028;-75
2024/01/24 10:18:01;;;;;;;32.83;7.20;;;;;;;10.97;100.00;101951.50;5085837;28;20056;-71
2024/01/24 10:20:26;;;;;;;28.60;6.50;;;;;;;11.14;100.00;101946.56;5087990;28;20592;-71
2024/01/24 10:22:53;;;;;;;29.80;6.88;;;;;;;11.29;100.00;101974.19;5084667;28;20028;-72
2024/01/24 10:25:19;;;;;;;31.30;7.38;;;;;;;11.37;100.00;101976.97;5080336;28;20039;-70
2024/01/24 10:27:44;;;;;;;32.10;7.40;;;;;;;11.41;100.00;101979.69;5087355;28;20476;-74
2024/01/24 10:30:11;;;;;;;31.88;7.45;;;;;;;11.35;100.00;101955.78;5085192;28;20044;-71
2024/01/24 10:32:37;;;;;;;27.45;7.35;;;;;;;11.33;100.00;101973.41;5085952;28;20037;-71
2024/01/24 10:35:06;;;;;;;29.70;8.05;;;;;;;11.28;100.00;101973.28;5083735;28;20069;-71
2024/01/24 10:37:32;;;;;;;29.33;6.75;;;;;;;11.31;100.00;101970.72;5086518;28;20085;-77
2024/01/24 10:40:04;;;;;;;29.15;6.78;;;;;;;11.27;100.00;101999.72;5085621;28;20024;-71
2024/01/24 10:42:36;;;;;;;28.10;6.30;;;;;;;11.41;100.00;101985.00;5086577;28;20166;-71
2024/01/24 10:45:03;;;;;;;31.08;7.10;;;;;;;11.48;100.00;101981.59;5085504;28;20020;-71
2024/01/24 10:47:30;;;;;;;30.25;6.57;;;;;;;11.33;100.00;101978.69;5086238;28;20031;-71
2024/01/24 10:49:56;;;;;;;31.90;7.85;;;;;;;11.13;100.00;101987.09;5085743;28;20033;-71
2024/01/24 10:52:22;;;;;;;26.77;5.93;;;;;;;11.29;100.00;101979.47;5084004;28;20051;-80
2024/01/24 10:54:49;;;;;;;29.85;7.68;;;;;;;11.21;100.00;101986.38;5086024;28;20036;-78
2024/01/24 10:57:17;;;;;;;27.75;7.38;;;;;;;11.13;100.00;102010.94;5084009;28;20060;-80
2024/01/24 10:59:44;;;;;;;31.77;6.57;;;;;;;11.31;100.00;102001.56;5079451;28;20114;-80
2024/01/24 11:02:10;;;;;;;28.38;6.88;;;;;;;11.29;100.00;101995.38;5087380;28;20402;-80
2024/01/24 11:04:37;;;;;;;28.10;6.82;;;;;;;11.43;100.00;102015.06;5084306;28;20544;-79